Time;durP1;ratioP1;P1;durP2;ratioP2;P2;SDS_P1;SDS_P2;PMS_P1;PMS_P2;Temp;Humidity;BMP_temperature;BMP_pressure;BME280_temperature;BME280_humidity;BME280_pressure;Samples;Min_cycle;Max_cycle;Signal;HPM_P1;HPM_P2
2022/03/19 00:00:02;;;;;;;7.23;3.37;;;;;;;;;;5018088;28;20218;-76
2022/03/19 00:02:30;;;;;;;14.60;3.50;;;;;;;;;;5018248;28;20200;-77
2022/03/19 00:04:57;;;;;;;7.10;3.30;;;;;;;;;;5019395;28;20227;-76
2022/03/19 00:07:24;;;;;;;8.83;3.40;;;;;;;;;;5018964;28;20580;-77
2022/03/19 00:09:52;;;;;;;7.63;3.00;;;;;;;;;;5017449;28;20287;-76
2022/03/19 00:12:20;;;;;;;10.27;3.10;;;;;;;;;;5014017;28;20247;-77
2022/03/19 00:14:49;;;;;;;6.53;3.10;;;;;;;;;;5016314;28;20740;-76
2022/03/19 00:17:16;;;;;;;12.40;2.70;;;;;;;;;;5018616;28;20207;-78
2022/03/19 00:19:43;;;;;;;9.53;3.07;;;;;;;;;;5018518;28;20299;-77
2022/03/19 00:22:10;;;;;;;6.73;2.80;;;;;;;;;;5019118;28;20283;-76
2022/03/19 00:24:38;;;;;;;9.93;2.70;;;;;;;;;;5015797;28;20235;-76
2022/03/19 00:27:05;;;;;;;7.83;2.67;;;;;;;;;;5013536;28;20300;-77
2022/03/19 00:29:32;;;;;;;8.90;2.87;;;;;;;;;;5016025;28;20235;-77
2022/03/19 00:32:01;;;;;;;6.57;2.97;;;;;;;;;;5015349;28;20235;-77
2022/03/19 00:34:29;;;;;;;11.67;3.57;;;;;;;;;;5012442;28;20575;-77
2022/03/19 00:36:56;;;;;;;7.43;2.93;;;;;;;;;;5014722;28;20649;-77
2022/03/19 00:39:23;;;;;;;8.77;3.13;;;;;;;;;;5012758;28;20212;-77
2022/03/19 00:41:52;;;;;;;8.07;2.93;;;;;;;;;;5012741;28;20447;-77
2022/03/19 00:44:21;;;;;;;10.53;3.70;;;;;;;;;;5013373;28;20220;-77
2022/03/19 00:46:48;;;;;;;9.23;2.90;;;;;;;;;;5015070;28;20471;-77
2022/03/19 00:49:17;;;;;;;9.70;3.40;;;;;;;;;;5016459;28;20227;-77
2022/03/19 00:51:45;;;;;;;7.63;3.33;;;;;;;;;;5015521;28;20645;-77
2022/03/19 00:54:12;;;;;;;9.73;3.93;;;;;;;;;;5016980;28;20255;-77
2022/03/19 00:56:40;;;;;;;9.40;3.10;;;;;;;;;;5016668;28;20211;-77
2022/03/19 00:59:08;;;;;;;15.50;3.83;;;;;;;;;;5020577;28;20205;-77
2022/03/19 01:01:35;;;;;;;11.20;3.47;;;;;;;;;;5015871;28;20290;-77
2022/03/19 01:04:03;;;;;;;10.07;3.47;;;;;;;;;;5019725;28;20595;-77
2022/03/19 01:06:31;;;;;;;11.50;3.83;;;;;;;;;;5013229;28;20295;-77
2022/03/19 01:08:59;;;;;;;16.43;3.30;;;;;;;;;;5016518;28;20473;-77
2022/03/19 01:11:26;;;;;;;8.00;3.47;;;;;;;;;;5012741;28;20223;-77
2022/03/19 01:13:54;;;;;;;8.67;3.70;;;;;;;;;;5017315;28;20242;-77
2022/03/19 01:16:21;;;;;;;11.93;3.20;;;;;;;;;;5015625;28;20738;-77
2022/03/19 01:18:48;;;;;;;13.57;3.33;;;;;;;;;;5014973;28;20558;-77
2022/03/19 01:21:17;;;;;;;11.97;3.47;;;;;;;;;;5013161;28;20208;-77
2022/03/19 01:23:45;;;;;;;11.97;3.73;;;;;;;;;;5014849;28;20486;-77
2022/03/19 01:26:13;;;;;;;7.80;3.13;;;;;;;;;;5015239;28;20733;-77
2022/03/19 01:28:40;;;;;;;13.00;3.83;;;;;;;;;;5015494;28;20913;-77
2022/03/19 01:31:07;;;;;;;7.03;3.37;;;;;;;;;;5015674;28;20311;-77
2022/03/19 01:33:34;;;;;;;8.03;3.43;;;;;;;;;;5021327;28;20565;-77
2022/03/19 01:36:01;;;;;;;10.37;3.80;;;;;;;;;;5015203;28;20461;-77
2022/03/19 01:38:28;;;;;;;7.53;3.47;;;;;;;;;;5012423;28;20290;-77
2022/03/19 01:40:57;;;;;;;10.87;3.60;;;;;;;;;;5017743;28;20291;-77
2022/03/19 01:43:24;;;;;;;14.27;3.83;;;;;;;;;;5017077;28;20219;-77
2022/03/19 01:45:51;;;;;;;10.57;3.60;;;;;;;;;;5016220;28;20303;-77
2022/03/19 01:48:19;;;;;;;11.37;3.90;;;;;;;;;;5015632;28;20607;-77
2022/03/19 01:50:46;;;;;;;11.97;3.93;;;;;;;;;;5016297;28;20302;-77
2022/03/19 01:53:13;;;;;;;9.83;3.83;;;;;;;;;;5016816;28;20554;-77
2022/03/19 01:55:40;;;;;;;16.53;4.40;;;;;;;;;;5011968;28;20574;-77
2022/03/19 01:58:10;;;;;;;15.67;4.53;;;;;;;;;;5018288;28;21049;-77
2022/03/19 02:00:37;;;;;;;9.23;3.90;;;;;;;;;;5013067;28;20541;-77
2022/03/19 02:03:05;;;;;;;14.67;4.23;;;;;;;;;;5013314;28;20550;-77
2022/03/19 02:05:32;;;;;;;10.10;4.27;;;;;;;;;;5017301;28;20462;-77
2022/03/19 02:07:59;;;;;;;10.37;4.53;;;;;;;;;;5021172;28;20204;-77
2022/03/19 02:10:26;;;;;;;10.93;4.43;;;;;;;;;;5018310;28;20562;-78
2022/03/19 02:12:55;;;;;;;13.43;4.87;;;;;;;;;;5018689;28;20494;-77
2022/03/19 02:15:23;;;;;;;10.40;4.27;;;;;;;;;;5018942;28;20496;-78
2022/03/19 02:17:51;;;;;;;12.10;4.50;;;;;;;;;;5020357;28;20463;-78
2022/03/19 02:20:19;;;;;;;14.40;4.60;;;;;;;;;;5020177;28;20212;-77
2022/03/19 02:25:34;;;;;;;12.87;4.73;;;;;;;;;;5024961;28;20468;-78
2022/03/19 02:25:36;;;;;;;15.03;4.77;;;;;;;;;;5023490;28;20960;-78
2022/03/19 02:28:04;;;;;;;9.17;4.37;;;;;;;;;;5022058;28;20519;-78
2022/03/19 02:30:32;;;;;;;15.60;5.20;;;;;;;;;;5015120;28;20563;-78
2022/03/19 02:33:00;;;;;;;11.60;4.77;;;;;;;;;;5015805;28;20492;-78
2022/03/19 02:35:28;;;;;;;12.27;4.13;;;;;;;;;;5019149;28;20458;-78
2022/03/19 02:37:55;;;;;;;12.07;4.40;;;;;;;;;;5014111;28;20467;-78
2022/03/19 02:40:23;;;;;;;14.57;4.97;;;;;;;;;;5018031;28;20559;-78
2022/03/19 02:42:52;;;;;;;19.47;4.77;;;;;;;;;;5017892;28;20490;-78
2022/03/19 02:45:21;;;;;;;12.53;4.30;;;;;;;;;;5015858;28;20259;-78
2022/03/19 02:47:58;;;;;;;13.30;4.93;;;;;;;;;;5014723;28;20520;-77
2022/03/19 02:50:25;;;;;;;12.53;5.40;;;;;;;;;;5009120;28;20539;-78
2022/03/19 02:52:53;;;;;;;21.63;5.07;;;;;;;;;;5015257;28;20487;-77
2022/03/19 02:55:20;;;;;;;16.00;4.87;;;;;;;;;;5016601;28;20879;-77
2022/03/19 02:57:48;;;;;;;16.60;5.20;;;;;;;;;;5015213;28;20901;-77
2022/03/19 03:00:17;;;;;;;12.57;4.80;;;;;;;;;;5012226;28;20474;-77
2022/03/19 03:02:44;;;;;;;14.10;4.60;;;;;;;;;;5011613;28;20553;-78
2022/03/19 03:05:13;;;;;;;20.23;5.23;;;;;;;;;;5012352;28;20546;-77
2022/03/19 03:07:40;;;;;;;13.80;4.87;;;;;;;;;;5013233;28;20481;-78
2022/03/19 03:10:07;;;;;;;14.63;5.07;;;;;;;;;;5018574;28;20972;-78
2022/03/19 03:12:35;;;;;;;13.90;5.17;;;;;;;;;;5016097;28;20565;-77
2022/03/19 03:15:02;;;;;;;13.73;5.03;;;;;;;;;;5013882;28;20566;-78
2022/03/19 03:17:33;;;;;;;19.40;4.70;;;;;;;;;;5016579;28;20545;-78
2022/03/19 03:20:00;;;;;;;18.33;5.57;;;;;;;;;;5018592;28;20459;-77
2022/03/19 03:22:27;;;;;;;10.80;4.83;;;;;;;;;;5024576;28;20458;-78
2022/03/19 03:24:54;;;;;;;11.80;4.90;;;;;;;;;;5016283;28;20501;-78
2022/03/19 03:27:22;;;;;;;19.27;5.00;;;;;;;;;;5019648;28;20459;-77
2022/03/19 03:29:49;;;;;;;14.43;5.10;;;;;;;;;;5016065;28;20467;-79
2022/03/19 03:32:17;;;;;;;14.10;4.97;;;;;;;;;;5020421;28;20523;-78
2022/03/19 03:34:45;;;;;;;16.17;5.80;;;;;;;;;;5014726;28;20486;-79
2022/03/19 03:37:12;;;;;;;12.07;4.73;;;;;;;;;;5016105;28;20545;-79
2022/03/19 03:39:40;;;;;;;16.83;5.17;;;;;;;;;;5016284;28;20973;-80
2022/03/19 03:42:07;;;;;;;12.87;4.77;;;;;;;;;;5022140;28;20455;-77
2022/03/19 03:44:34;;;;;;;15.77;4.50;;;;;;;;;;5022782;28;20557;-79
2022/03/19 03:47:01;;;;;;;13.20;4.40;;;;;;;;;;5015085;28;20511;-78
2022/03/19 03:49:29;;;;;;;14.53;4.60;;;;;;;;;;5018322;28;20565;-78
2022/03/19 03:51:57;;;;;;;14.20;4.63;;;;;;;;;;5018292;28;20482;-78
2022/03/19 03:54:24;;;;;;;15.00;5.00;;;;;;;;;;5017227;28;20489;-77
2022/03/19 03:56:52;;;;;;;17.67;5.00;;;;;;;;;;5017239;28;20466;-78
2022/03/19 03:59:23;;;;;;;15.40;4.83;;;;;;;;;;5019079;28;20470;-77
2022/03/19 04:01:50;;;;;;;11.30;4.80;;;;;;;;;;5012968;28;20450;-78
2022/03/19 04:04:17;;;;;;;15.20;5.23;;;;;;;;;;5022712;28;21090;-78
2022/03/19 04:06:44;;;;;;;16.27;4.83;;;;;;;;;;5013712;28;20549;-77
2022/03/19 04:09:13;;;;;;;11.17;4.17;;;;;;;;;;5021190;28;20462;-77
2022/03/19 04:11:40;;;;;;;12.40;4.73;;;;;;;;;;5016108;28;20469;-78
2022/03/19 04:14:07;;;;;;;16.07;4.90;;;;;;;;;;5016085;28;20616;-78
2022/03/19 04:16:37;;;;;;;11.67;5.17;;;;;;;;;;5015890;28;20465;-78
2022/03/19 04:19:04;;;;;;;12.80;5.23;;;;;;;;;;5018359;28;20885;-77
2022/03/19 04:21:32;;;;;;;16.60;5.50;;;;;;;;;;5017623;28;20463;-77
2022/03/19 04:23:59;;;;;;;13.97;5.27;;;;;;;;;;5014797;28;20572;-77
2022/03/19 04:26:27;;;;;;;12.17;4.93;;;;;;;;;;5016719;28;20497;-78
2022/03/19 04:28:55;;;;;;;15.00;4.67;;;;;;;;;;5013553;28;20537;-78
2022/03/19 04:31:22;;;;;;;15.20;5.23;;;;;;;;;;5020410;28;20547;-77
2022/03/19 04:33:49;;;;;;;15.33;5.13;;;;;;;;;;5014162;28;20494;-77
2022/03/19 04:36:32;;;;;;;16.63;5.37;;;;;;;;;;5018268;28;20621;-77
2022/03/19 04:38:59;;;;;;;11.47;4.93;;;;;;;;;;5018753;28;20466;-78
2022/03/19 04:41:28;;;;;;;14.90;5.43;;;;;;;;;;5016254;28;20493;-78
2022/03/19 04:43:55;;;;;;;15.83;5.33;;;;;;;;;;5020640;28;20524;-78
2022/03/19 04:46:23;;;;;;;11.10;4.70;;;;;;;;;;5023226;28;20521;-77
2022/03/19 04:48:52;;;;;;;21.10;5.30;;;;;;;;;;5020988;28;20525;-78
2022/03/19 04:51:20;;;;;;;15.20;5.33;;;;;;;;;;5015008;28;20467;-78
2022/03/19 04:53:50;;;;;;;18.90;5.10;;;;;;;;;;5013214;28;20521;-78
2022/03/19 04:56:17;;;;;;;17.03;5.40;;;;;;;;;;5020484;28;20472;-78
2022/03/19 04:58:46;;;;;;;16.40;5.33;;;;;;;;;;5018565;28;20458;-78
2022/03/19 05:01:13;;;;;;;16.40;4.80;;;;;;;;;;5014619;28;20470;-77
2022/03/19 05:03:41;;;;;;;14.07;4.77;;;;;;;;;;5011067;28;20493;-77
2022/03/19 05:06:08;;;;;;;15.57;5.27;;;;;;;;;;5015339;28;20515;-77
2022/03/19 05:08:35;;;;;;;13.53;5.10;;;;;;;;;;5015726;28;20585;-78
2022/03/19 05:11:13;;;;;;;15.70;5.53;;;;;;;;;;5016209;28;20477;-77
2022/03/19 05:13:40;;;;;;;9.33;4.70;;;;;;;;;;5014080;28;20495;-77
2022/03/19 05:16:09;;;;;;;12.67;4.97;;;;;;;;;;5012831;28;20554;-78
2022/03/19 05:18:36;;;;;;;11.43;5.00;;;;;;;;;;5014295;28;20487;-77
2022/03/19 05:21:03;;;;;;;12.13;4.47;;;;;;;;;;5015136;28;20527;-78
2022/03/19 05:23:31;;;;;;;14.13;5.53;;;;;;;;;;5019200;28;20506;-78
2022/03/19 05:25:58;;;;;;;13.67;5.67;;;;;;;;;;5014907;28;20526;-79
2022/03/19 05:28:26;;;;;;;13.73;4.83;;;;;;;;;;5018812;28;20463;-79
2022/03/19 05:30:53;;;;;;;13.63;5.00;;;;;;;;;;5020557;28;20797;-78
2022/03/19 05:34:29;;;;;;;12.73;4.70;;;;;;;;;;5021567;28;20491;-78
2022/03/19 05:36:11;;;;;;;13.43;5.03;;;;;;;;;;5017781;28;20958;-78
2022/03/19 05:38:38;;;;;;;16.33;5.07;;;;;;;;;;5014244;28;20961;-79
2022/03/19 05:41:05;;;;;;;15.67;5.20;;;;;;;;;;5017575;28;21055;-77
2022/03/19 05:43:32;;;;;;;20.00;5.57;;;;;;;;;;5017582;28;20484;-78
2022/03/19 05:46:00;;;;;;;11.97;4.60;;;;;;;;;;5011481;28;20925;-77
2022/03/19 05:48:28;;;;;;;16.60;5.00;;;;;;;;;;5016669;28;20877;-78
2022/03/19 05:50:55;;;;;;;13.93;5.37;;;;;;;;;;5011174;28;20485;-77
2022/03/19 05:53:23;;;;;;;11.13;4.80;;;;;;;;;;5013087;28;20574;-77
2022/03/19 05:55:50;;;;;;;14.07;4.70;;;;;;;;;;5012048;28;20463;-77
2022/03/19 05:58:17;;;;;;;10.10;4.37;;;;;;;;;;5014770;28;20465;-78
2022/03/19 06:00:44;;;;;;;16.30;4.63;;;;;;;;;;5011374;28;20466;-78
2022/03/19 06:03:12;;;;;;;13.77;5.03;;;;;;;;;;5015115;28;20562;-78
2022/03/19 06:05:40;;;;;;;17.83;5.23;;;;;;;;;;5010644;28;20459;-77
2022/03/19 06:08:07;;;;;;;18.33;4.93;;;;;;;;;;5016425;28;20481;-77
2022/03/19 06:10:35;;;;;;;11.87;4.90;;;;;;;;;;5014311;28;20540;-77
2022/03/19 06:13:03;;;;;;;15.00;5.50;;;;;;;;;;5016133;28;20486;-77
2022/03/19 06:15:30;;;;;;;12.33;5.33;;;;;;;;;;5016911;28;20524;-77
2022/03/19 06:17:57;;;;;;;14.87;5.17;;;;;;;;;;5017178;28;21763;-77
2022/03/19 06:20:25;;;;;;;11.57;4.87;;;;;;;;;;5012654;28;21052;-77
2022/03/19 06:22:53;;;;;;;15.03;5.77;;;;;;;;;;5018228;28;20462;-79
2022/03/19 06:25:20;;;;;;;13.33;4.60;;;;;;;;;;5015970;28;20484;-77
2022/03/19 06:27:48;;;;;;;18.50;5.00;;;;;;;;;;5016877;28;21027;-77
2022/03/19 06:30:15;;;;;;;15.10;5.33;;;;;;;;;;5012436;28;20972;-78
2022/03/19 06:32:42;;;;;;;14.60;5.20;;;;;;;;;;5011490;28;20483;-79
2022/03/19 06:35:10;;;;;;;15.77;5.87;;;;;;;;;;5015015;28;20858;-80
2022/03/19 06:37:36;;;;;;;16.67;5.73;;;;;;;;;;5018341;28;20490;-79
2022/03/19 06:40:07;;;;;;;15.47;5.60;;;;;;;;;;5014255;28;20475;-77
2022/03/19 06:42:34;;;;;;;15.20;6.33;;;;;;;;;;5012212;28;20470;-77
2022/03/19 06:45:01;;;;;;;24.63;6.87;;;;;;;;;;5015491;28;20631;-77
2022/03/19 06:47:30;;;;;;;16.00;6.27;;;;;;;;;;5018060;28;20490;-79
2022/03/19 06:50:00;;;;;;;19.73;6.30;;;;;;;;;;5017305;28;20463;-76
2022/03/19 06:52:28;;;;;;;27.43;6.53;;;;;;;;;;5017091;28;20678;-77
2022/03/19 06:54:56;;;;;;;13.83;6.27;;;;;;;;;;5020746;28;20230;-76
2022/03/19 06:57:24;;;;;;;18.07;6.00;;;;;;;;;;5019352;28;20199;-78
2022/03/19 06:59:53;;;;;;;11.80;5.50;;;;;;;;;;5017896;28;20204;-77
2022/03/19 07:02:20;;;;;;;12.67;5.00;;;;;;;;;;5016870;28;20720;-76
2022/03/19 07:04:47;;;;;;;14.67;5.20;;;;;;;;;;5018794;28;20225;-78
2022/03/19 07:07:14;;;;;;;12.30;5.20;;;;;;;;;;5016567;28;20262;-76
2022/03/19 07:09:41;;;;;;;9.53;5.00;;;;;;;;;;5023239;28;20235;-78
2022/03/19 07:12:11;;;;;;;10.93;4.97;;;;;;;;;;5021598;28;20211;-77
2022/03/19 07:14:39;;;;;;;11.23;5.03;;;;;;;;;;5018863;28;20235;-78
2022/03/19 07:17:07;;;;;;;12.33;4.33;;;;;;;;;;5020187;28;20228;-77
2022/03/19 07:19:34;;;;;;;10.10;4.30;;;;;;;;;;5018014;28;20214;-76
2022/03/19 07:22:01;;;;;;;9.57;4.50;;;;;;;;;;5014680;28;21269;-77
2022/03/19 07:24:28;;;;;;;13.30;4.23;;;;;;;;;;5018022;28;20310;-77
2022/03/19 07:26:55;;;;;;;14.93;4.63;;;;;;;;;;5016506;28;20201;-77
2022/03/19 07:29:23;;;;;;;10.33;4.30;;;;;;;;;;5018312;28;20207;-77
2022/03/19 07:31:51;;;;;;;11.57;4.53;;;;;;;;;;5020186;28;20296;-77
2022/03/19 07:34:18;;;;;;;13.13;4.20;;;;;;;;;;5019625;28;20236;-76
2022/03/19 07:36:45;;;;;;;11.93;5.13;;;;;;;;;;5017053;28;20655;-77
2022/03/19 07:39:13;;;;;;;8.97;4.03;;;;;;;;;;5019093;28;20223;-78
2022/03/19 07:41:48;;;;;;;10.07;4.27;;;;;;;;;;5020780;28;20200;-78
2022/03/19 07:44:16;;;;;;;11.37;3.90;;;;;;;;;;5016683;28;20294;-78
2022/03/19 07:46:43;;;;;;;8.97;4.50;;;;;;;;;;5018612;28;20199;-77
2022/03/19 07:49:12;;;;;;;10.33;4.83;;;;;;;;;;5016434;28;20212;-76
2022/03/19 07:51:39;;;;;;;10.67;4.67;;;;;;;;;;5014265;28;20228;-76
2022/03/19 07:54:06;;;;;;;8.17;3.97;;;;;;;;;;5018583;28;20330;-77
2022/03/19 07:56:34;;;;;;;13.30;4.20;;;;;;;;;;5019567;28;20200;-78
2022/03/19 07:59:01;;;;;;;13.07;4.50;;;;;;;;;;5015100;28;20631;-77
2022/03/19 08:01:28;;;;;;;9.80;4.40;;;;;;;;;;5017890;28;20266;-76
2022/03/19 08:03:56;;;;;;;9.60;3.97;;;;;;;;;;5017819;28;20222;-76
2022/03/19 08:06:24;;;;;;;10.83;4.43;;;;;;;;;;5015960;28;20745;-76
2022/03/19 08:08:51;;;;;;;10.00;3.90;;;;;;;;;;5017839;28;20200;-77
2022/03/19 08:11:19;;;;;;;11.83;4.73;;;;;;;;;;5013506;28;20263;-77
2022/03/19 08:13:46;;;;;;;11.90;4.70;;;;;;;;;;5010831;28;20228;-77
2022/03/19 08:16:13;;;;;;;10.13;4.50;;;;;;;;;;5013985;28;20208;-76
2022/03/19 08:18:41;;;;;;;16.30;4.77;;;;;;;;;;5012686;28;20258;-76
2022/03/19 08:21:08;;;;;;;10.77;5.07;;;;;;;;;;5023065;28;20726;-77
2022/03/19 08:23:37;;;;;;;15.50;5.17;;;;;;;;;;5016909;28;20310;-76
2022/03/19 08:26:04;;;;;;;14.77;5.10;;;;;;;;;;5018981;28;20572;-77
2022/03/19 08:28:31;;;;;;;10.73;4.90;;;;;;;;;;5021192;28;20200;-77
2022/03/19 08:30:59;;;;;;;13.70;4.43;;;;;;;;;;5020796;28;20208;-78
2022/03/19 08:33:26;;;;;;;9.70;4.70;;;;;;;;;;5014973;28;20700;-79
2022/03/19 08:35:53;;;;;;;13.90;4.20;;;;;;;;;;5019232;28;20294;-77
2022/03/19 08:41:07;;;;;;;9.17;4.33;;;;;;;;;;5027235;28;20201;-78
2022/03/19 08:43:34;;;;;;;11.80;4.07;;;;;;;;;;5019698;28;21283;-79
2022/03/19 08:46:02;;;;;;;13.37;4.33;;;;;;;;;;5024902;28;20273;-79
2022/03/19 08:48:29;;;;;;;8.23;3.83;;;;;;;;;;5022074;28;20215;-78
2022/03/19 08:51:39;;;;;;;12.40;3.60;;;;;;;;;;5017252;28;20211;-78
2022/03/19 08:53:44;;;;;;;10.97;4.13;;;;;;;;;;5013304;28;20278;-77
2022/03/19 08:56:12;;;;;;;13.23;4.27;;;;;;;;;;5008773;28;20296;-77
2022/03/19 08:58:39;;;;;;;9.97;3.90;;;;;;;;;;5012484;28;20220;-77
2022/03/19 09:01:07;;;;;;;14.00;4.07;;;;;;;;;;5014822;28;20852;-76
2022/03/19 09:03:34;;;;;;;13.00;3.87;;;;;;;;;;5015406;28;20940;-77
2022/03/19 09:06:01;;;;;;;11.23;3.67;;;;;;;;;;5016257;28;20592;-77
2022/03/19 09:08:29;;;;;;;11.13;4.40;;;;;;;;;;5018766;28;20295;-77
2022/03/19 09:10:58;;;;;;;12.90;4.17;;;;;;;;;;5015277;28;20215;-77
2022/03/19 09:13:26;;;;;;;8.43;4.00;;;;;;;;;;5017115;28;20889;-77
2022/03/19 09:15:54;;;;;;;10.27;4.03;;;;;;;;;;5012280;28;20203;-77
2022/03/19 09:18:21;;;;;;;11.87;4.30;;;;;;;;;;5015731;28;20200;-77
2022/03/19 09:20:49;;;;;;;16.80;4.57;;;;;;;;;;5012343;28;20272;-76
2022/03/19 09:23:16;;;;;;;15.60;3.60;;;;;;;;;;5018921;28;20239;-79
2022/03/19 09:25:43;;;;;;;10.30;3.83;;;;;;;;;;5012713;28;20208;-79
2022/03/19 09:28:10;;;;;;;10.20;3.50;;;;;;;;;;5010537;28;20236;-78
2022/03/19 09:30:39;;;;;;;13.50;4.00;;;;;;;;;;5011475;28;20204;-79
2022/03/19 09:33:06;;;;;;;7.07;3.50;;;;;;;;;;5016862;28;20506;-79
2022/03/19 09:35:34;;;;;;;8.87;3.80;;;;;;;;;;5009244;28;20204;-78
2022/03/19 09:38:01;;;;;;;7.67;3.43;;;;;;;;;;5017925;28;20200;-78
2022/03/19 09:40:28;;;;;;;7.03;3.23;;;;;;;;;;5021180;28;20211;-79
2022/03/19 09:42:57;;;;;;;6.50;3.23;;;;;;;;;;5020945;28;20287;-77
2022/03/19 09:45:26;;;;;;;9.73;3.20;;;;;;;;;;5023098;28;20204;-77
2022/03/19 09:47:55;;;;;;;14.73;3.30;;;;;;;;;;5015900;28;20204;-78
2022/03/19 09:50:23;;;;;;;8.53;2.70;;;;;;;;;;5016223;28;20843;-77
2022/03/19 09:52:53;;;;;;;8.03;3.10;;;;;;;;;;5020229;28;20246;-80
2022/03/19 09:55:21;;;;;;;7.53;3.13;;;;;;;;;;5018746;28;20241;-78
2022/03/19 09:57:49;;;;;;;7.57;3.10;;;;;;;;;;5018791;28;20733;-75
2022/03/19 10:00:16;;;;;;;9.57;2.87;;;;;;;;;;5017767;28;20207;-76
2022/03/19 10:02:57;;;;;;;8.90;2.90;;;;;;;;;;5019262;28;20210;-75
2022/03/19 10:10:56;;;;;;;7.20;2.50;;;;;;;;;;5021486;28;20239;-77
2022/03/19 10:13:24;;;;;;;9.60;2.40;;;;;;;;;;5024764;28;20978;-78
2022/03/19 10:15:51;;;;;;;7.87;2.90;;;;;;;;;;5021893;28;20239;-79
2022/03/19 10:18:20;;;;;;;6.27;2.80;;;;;;;;;;5019485;28;20231;-76
2022/03/19 10:20:47;;;;;;;8.87;3.10;;;;;;;;;;5018157;28;20207;-76
2022/03/19 10:23:14;;;;;;;6.70;2.63;;;;;;;;;;5019656;28;20204;-76
2022/03/19 10:25:42;;;;;;;9.20;2.70;;;;;;;;;;5028589;28;20253;-77
2022/03/19 10:28:11;;;;;;;10.37;2.80;;;;;;;;;;5015802;28;20203;-77
2022/03/19 10:30:42;;;;;;;8.47;3.43;;;;;;;;;;5017975;28;20211;-77
2022/03/19 10:33:09;;;;;;;8.07;2.50;;;;;;;;;;5019101;28;20234;-77
2022/03/19 10:35:41;;;;;;;9.13;2.90;;;;;;;;;;5008391;28;20785;-78
2022/03/19 10:38:17;;;;;;;6.37;2.13;;;;;;;;;;5011609;22;20229;-77
2022/03/19 10:40:46;;;;;;;5.07;2.10;;;;;;;;;;4992752;28;20283;-76
2022/03/19 10:43:13;;;;;;;4.80;1.90;;;;;;;;;;4989767;28;20197;-77
2022/03/19 10:45:45;;;;;;;4.33;1.63;;;;;;;;;;4998703;28;20670;-78
2022/03/19 10:48:12;;;;;;;9.00;1.97;;;;;;;;;;5004756;28;20218;-78
2022/03/19 10:50:42;;;;;;;4.53;1.67;;;;;;;;;;5003784;28;20293;-77
2022/03/19 10:53:10;;;;;;;3.53;1.80;;;;;;;;;;5008487;28;20208;-78
2022/03/19 10:55:37;;;;;;;4.43;1.80;;;;;;;;;;5005139;28;20235;-76
2022/03/19 10:58:05;;;;;;;5.37;1.70;;;;;;;;;;5002990;28;20699;-76
2022/03/19 11:00:32;;;;;;;4.73;1.60;;;;;;;;;;5001042;28;20248;-76
2022/03/19 11:03:01;;;;;;;5.53;1.30;;;;;;;;;;5009033;28;20291;-75
2022/03/19 11:05:30;;;;;;;3.80;1.60;;;;;;;;;;4990981;28;20204;-76
2022/03/19 11:07:59;;;;;;;5.20;1.53;;;;;;;;;;4999110;28;20758;-77
2022/03/19 11:10:26;;;;;;;5.87;1.47;;;;;;;;;;4998411;28;20200;-76
2022/03/19 11:12:56;;;;;;;3.30;1.50;;;;;;;;;;4990802;28;20700;-78
2022/03/19 11:15:24;;;;;;;4.77;1.43;;;;;;;;;;4999604;28;21140;-79
2022/03/19 11:17:52;;;;;;;9.13;3.37;;;;;;;;;;4998661;28;20686;-79
2022/03/19 11:20:23;;;;;;;3.70;2.23;;;;;;;;;;5004160;28;20200;-78
2022/03/19 11:22:51;;;;;;;3.97;2.00;;;;;;;;;;4998011;28;20200;-77
2022/03/19 11:25:24;;;;;;;3.67;1.40;;;;;;;;;;4996309;28;20231;-78
2022/03/19 11:27:53;;;;;;;7.97;2.13;;;;;;;;;;4996083;28;20379;-75
2022/03/19 11:30:23;;;;;;;4.27;1.70;;;;;;;;;;4998532;28;20250;-76
2022/03/19 11:33:03;;;;;;;3.93;1.60;;;;;;;;;;4994959;28;20216;-76
2022/03/19 11:35:31;;;;;;;4.67;1.27;;;;;;;;;;5009183;28;20216;-78
2022/03/19 11:38:00;;;;;;;4.50;1.57;;;;;;;;;;5010059;28;20240;-77
2022/03/19 11:40:31;;;;;;;6.07;1.60;;;;;;;;;;5004242;28;20223;-76
2022/03/19 11:43:00;;;;;;;3.33;1.43;;;;;;;;;;5010931;28;20192;-77
2022/03/19 11:45:28;;;;;;;3.33;1.30;;;;;;;;;;5004915;28;20796;-77
2022/03/19 11:47:56;;;;;;;6.13;1.73;;;;;;;;;;5002443;28;20716;-80
2022/03/19 11:50:24;;;;;;;5.67;1.47;;;;;;;;;;5000010;28;20209;-79
2022/03/19 11:53:05;;;;;;;4.07;1.47;;;;;;;;;;4999904;28;20219;-80
2022/03/19 11:55:39;;;;;;;3.53;1.50;;;;;;;;;;5006023;28;20246;-80
2022/03/19 11:58:10;;;;;;;6.50;1.97;;;;;;;;;;4999233;28;20240;-77
2022/03/19 12:00:39;;;;;;;8.87;1.70;;;;;;;;;;4996863;28;20203;-79
2022/03/19 12:03:12;;;;;;;3.47;1.60;;;;;;;;;;5001784;28;20679;-80
2022/03/19 12:05:43;;;;;;;5.33;1.60;;;;;;;;;;5003052;28;20205;-79
2022/03/19 12:08:13;;;;;;;4.63;1.30;;;;;;;;;;5006164;28;20295;-79
2022/03/19 12:10:54;;;;;;;4.77;1.73;;;;;;;;;;5004159;28;20235;-80
2022/03/19 12:13:44;;;;;;;5.63;1.57;;;;;;;;;;4998750;28;20717;-78
2022/03/19 12:16:12;;;;;;;3.57;1.40;;;;;;;;;;5005090;28;20297;-77
2022/03/19 12:18:44;;;;;;;4.80;1.40;;;;;;;;;;5002132;28;20320;-76
2022/03/19 12:21:16;;;;;;;10.27;1.23;;;;;;;;;;4999528;28;20216;-76
2022/03/19 12:23:49;;;;;;;5.67;1.60;;;;;;;;;;4998796;28;20315;-76
2022/03/19 12:26:22;;;;;;;7.43;2.30;;;;;;;;;;4999492;28;20215;-78
2022/03/19 12:28:57;;;;;;;2.57;1.20;;;;;;;;;;5000968;28;20197;-76
2022/03/19 12:31:30;;;;;;;4.73;1.43;;;;;;;;;;5004450;28;20276;-79
2022/03/19 12:33:57;;;;;;;3.07;1.40;;;;;;;;;;5003355;28;20243;-80
2022/03/19 12:36:24;;;;;;;3.93;1.30;;;;;;;;;;4996879;28;20243;-79
2022/03/19 12:38:52;;;;;;;3.73;1.20;;;;;;;;;;5003978;28;20231;-80
2022/03/19 12:41:26;;;;;;;5.23;1.67;;;;;;;;;;4999941;28;20206;-80
2022/03/19 12:43:54;;;;;;;6.90;1.37;;;;;;;;;;5002373;28;20520;-79
2022/03/19 12:46:25;;;;;;;2.90;1.00;;;;;;;;;;5002882;28;20296;-80
2022/03/19 12:48:53;;;;;;;5.47;1.23;;;;;;;;;;4995783;28;20292;-75
2022/03/19 12:51:27;;;;;;;4.67;1.23;;;;;;;;;;4998134;28;20259;-77
2022/03/19 12:53:54;;;;;;;3.07;0.90;;;;;;;;;;5000647;28;20248;-77
2022/03/19 12:56:24;;;;;;;6.07;1.37;;;;;;;;;;5001214;28;20220;-79
2022/03/19 12:58:52;;;;;;;4.60;1.37;;;;;;;;;;5001471;28;20236;-80
2022/03/19 13:01:20;;;;;;;2.37;1.00;;;;;;;;;;5003996;28;20228;-78
2022/03/19 13:03:47;;;;;;;3.90;1.33;;;;;;;;;;5003787;28;20261;-78
2022/03/19 13:06:16;;;;;;;5.30;1.23;;;;;;;;;;5002334;28;20401;-78
2022/03/19 13:08:47;;;;;;;2.60;1.10;;;;;;;;;;5002548;28;20212;-80
2022/03/19 13:11:14;;;;;;;3.47;1.07;;;;;;;;;;5001396;28;20212;-77
2022/03/19 13:13:44;;;;;;;2.53;1.00;;;;;;;;;;5004702;28;20231;-77
2022/03/19 13:16:13;;;;;;;2.73;1.10;;;;;;;;;;4998886;28;20220;-80
2022/03/19 13:18:42;;;;;;;2.47;1.00;;;;;;;;;;5000463;28;20632;-80
2022/03/19 13:21:11;;;;;;;4.20;1.20;;;;;;;;;;5003040;28;20296;-80
2022/03/19 13:23:39;;;;;;;4.67;1.07;;;;;;;;;;5002529;28;20259;-77
2022/03/19 13:26:06;;;;;;;1.50;0.80;;;;;;;;;;4999604;28;20236;-75
2022/03/19 13:28:34;;;;;;;3.50;0.80;;;;;;;;;;5003256;28;20224;-77
2022/03/19 13:31:03;;;;;;;4.47;1.00;;;;;;;;;;5004104;28;20207;-77
2022/03/19 13:33:31;;;;;;;3.40;0.93;;;;;;;;;;5006561;28;20243;-77
2022/03/19 13:35:59;;;;;;;1.87;0.83;;;;;;;;;;5008838;28;20343;-78
2022/03/19 13:38:26;;;;;;;2.40;0.90;;;;;;;;;;5005872;28;20208;-78
2022/03/19 13:40:56;;;;;;;3.70;0.77;;;;;;;;;;4998402;28;20208;-77
2022/03/19 13:43:24;;;;;;;5.83;1.13;;;;;;;;;;4994015;28;20236;-78
2022/03/19 13:46:06;;;;;;;3.13;1.00;;;;;;;;;;4997689;28;20667;-77
2022/03/19 13:48:35;;;;;;;2.27;0.90;;;;;;;;;;4997634;28;20200;-76
2022/03/19 13:51:03;;;;;;;4.67;0.80;;;;;;;;;;4996555;28;20248;-76
2022/03/19 13:53:41;;;;;;;2.53;0.67;;;;;;;;;;5010529;28;20223;-78
2022/03/19 13:56:09;;;;;;;3.87;1.00;;;;;;;;;;5001599;28;20224;-76
2022/03/19 13:58:37;;;;;;;2.40;0.90;;;;;;;;;;4996852;28;20213;-78
2022/03/19 14:01:12;;;;;;;4.73;0.97;;;;;;;;;;4999930;28;20291;-76
2022/03/19 14:03:49;;;;;;;2.63;1.00;;;;;;;;;;4999032;28;20698;-77
2022/03/19 14:06:26;;;;;;;4.47;1.20;;;;;;;;;;5008431;28;20292;-76
2022/03/19 14:08:54;;;;;;;8.40;1.53;;;;;;;;;;4998883;28;20208;-76
2022/03/19 14:11:21;;;;;;;2.43;1.03;;;;;;;;;;4997179;28;20249;-75
2022/03/19 14:13:49;;;;;;;5.70;1.20;;;;;;;;;;4998023;28;20259;-75
2022/03/19 14:16:17;;;;;;;3.07;1.00;;;;;;;;;;4997215;28;20239;-76
2022/03/19 14:18:47;;;;;;;3.63;1.10;;;;;;;;;;4998605;28;20498;-74
2022/03/19 14:21:14;;;;;;;5.40;1.10;;;;;;;;;;4996513;28;20242;-75
2022/03/19 14:23:42;;;;;;;3.60;1.00;;;;;;;;;;5000859;28;20220;-75
2022/03/19 14:26:10;;;;;;;3.17;0.90;;;;;;;;;;4999734;28;20236;-75
2022/03/19 14:28:37;;;;;;;3.13;1.03;;;;;;;;;;4999947;28;20209;-76
2022/03/19 14:31:05;;;;;;;4.13;1.10;;;;;;;;;;4999401;28;20296;-75
2022/03/19 14:33:32;;;;;;;2.27;1.00;;;;;;;;;;5000459;28;20236;-75
2022/03/19 14:36:02;;;;;;;3.60;0.97;;;;;;;;;;4998355;28;20231;-76
2022/03/19 14:38:30;;;;;;;4.50;1.13;;;;;;;;;;4996175;28;20209;-77
2022/03/19 14:40:59;;;;;;;5.03;0.97;;;;;;;;;;4996374;28;20213;-75
2022/03/19 14:43:26;;;;;;;4.77;1.40;;;;;;;;;;5002481;28;20239;-76
2022/03/19 14:45:55;;;;;;;4.27;1.20;;;;;;;;;;4997341;28;20200;-75
2022/03/19 14:48:23;;;;;;;3.57;1.07;;;;;;;;;;5003030;28;20267;-76
2022/03/19 14:50:51;;;;;;;5.20;1.60;;;;;;;;;;5001892;28;20201;-76